Time,TemperatureF,DewpointF,PressureIn,WindDirection,WindDirectionDegrees,WindSpeedMPH,WindSpeedGustMPH,Humidity,HourlyPrecipIn,Conditions,Clouds,dailyrainin,SolarRadiationWatts/m^2,SoftwareType,DateUTC
2013-01-05 00:00:00,27.8,25.3,30.37,SE,136,0.0,1.0,90,0.00,OVC,,0.00,0.0,WeatherDisplay:10.37,2013-01-05 06:00:00,
2013-01-05 00:10:00,28.1,26.3,30.38,SE,136,0.0,1.0,93,0.00,OVC,,0.00,0.0,WeatherDisplay:10.37,2013-01-05 06:10:00,
2013-01-05 00:20:00,27.6,25.3,30.37,SE,136,0.0,1.0,91,0.00,OVC,,0.00,0.0,WeatherDisplay:10.37,2013-01-05 06:20:00,
2013-01-05 00:30:00,27.2,25.2,30.36,East,92,0.0,1.0,92,0.00,OVC,,0.00,0.0,WeatherDisplay:10.37,2013-01-05 06:30:00,
2013-01-05 00:40:00,26.9,24.9,30.37,East,79,0.0,1.0,92,0.00,OVC,,0.00,0.0,WeatherDisplay:10.37,2013-01-05 06:40:00,
2013-01-05 00:50:00,26.5,24.2,30.37,East,79,0.0,1.0,91,0.00,OVC,,0.00,0.0,WeatherDisplay:10.37,2013-01-05 06:50:00,
2013-01-05 01:00:00,25.9,23.9,30.38,ESE,111,1.0,1.0,92,0.00,OVC,,0.00,0.0,WeatherDisplay:10.37,2013-01-05 07:00:00,
2013-01-05 01:10:00,25.3,23.6,30.37,South,170,0.0,1.0,93,0.00,OVC,,0.00,0.0,WeatherDisplay:10.37,2013-01-05 07:10:00,
2013-01-05 01:20:00,25.2,23.5,30.37,South,170,0.0,0.0,93,0.00,OVC,,0.00,0.0,WeatherDisplay:10.37,2013-01-05 07:20:00,
2013-01-05 01:30:00,25.4,23.9,30.37,South,169,0.0,0.0,94,0.00,OVC,,0.00,0.0,WeatherDisplay:10.37,2013-01-05 07:30:00,
2013-01-05 01:40:00,25.8,24.3,30.37,South,169,0.0,0.0,94,0.00,OVC,,0.00,0.0,WeatherDisplay:10.37,2013-01-05 07:40:00,
2013-01-05 01:50:00,25.7,23.9,30.37,SSE,168,0.0,0.0,93,0.00,OVC,,0.00,0.0,WeatherDisplay:10.37,2013-01-05 07:50:00,
2013-01-05 02:00:00,25.9,24.4,30.36,SSE,168,0.0,1.0,94,0.00,OVC,,0.00,0.0,WeatherDisplay:10.37,2013-01-05 08:00:00,
2013-01-05 02:10:00,26.0,24.3,30.37,SSE,166,0.0,1.0,93,0.00,OVC,,0.00,0.0,WeatherDisplay:10.37,2013-01-05 08:10:00,
2013-01-05 02:20:00,26.2,24.7,30.38,SSE,163,0.0,0.0,94,0.00,OVC,,0.00,0.0,WeatherDisplay:10.37,2013-01-05 08:20:00,
2013-01-05 02:30:00,26.1,24.1,30.36,SE,137,0.0,1.0,92,0.00,OVC,,0.00,0.0,WeatherDisplay:10.37,2013-01-05 08:30:00,
2013-01-05 02:40:00,25.9,24.1,30.37,ESE,120,0.0,1.0,93,0.00,OVC,,0.00,0.0,WeatherDisplay:10.37,2013-01-05 08:40:00,
2013-01-05 02:50:00,25.9,24.2,30.37,ESE,120,0.0,0.0,93,0.00,OVC,,0.00,0.0,WeatherDisplay:10.37,2013-01-05 08:50:00,
2013-01-05 03:00:00,26.1,24.6,30.37,ESE,120,0.0,0.0,94,0.00,OVC,,0.00,0.0,WeatherDisplay:10.37,2013-01-05 09:00:00,
2013-01-05 03:10:00,26.9,25.7,30.37,ESE,118,0.0,1.0,95,0.00,OVC,,0.00,0.0,WeatherDisplay:10.37,2013-01-05 09:10:00,
2013-01-05 03:20:00,26.5,24.8,30.38,ESE,117,0.0,0.0,93,0.00,OVC,,0.00,0.0,WeatherDisplay:10.37,2013-01-05 09:20:00,
2013-01-05 03:30:00,26.1,24.4,30.37,ESE,117,0.0,0.0,93,0.00,OVC,,0.00,0.0,WeatherDisplay:10.37,2013-01-05 09:30:00,
2013-01-05 03:40:00,25.3,23.3,30.37,ESE,117,0.0,1.0,92,0.00,OVC,,0.00,0.0,WeatherDisplay:10.37,2013-01-05 09:40:00,
2013-01-05 03:50:00,25.3,23.8,30.36,ESE,118,0.0,0.0,94,0.00,OVC,,0.00,0.0,WeatherDisplay:10.37,2013-01-05 09:50:00,
2013-01-05 04:00:00,25.5,24.0,30.37,ESE,118,0.0,1.0,94,0.00,OVC,,0.00,0.0,WeatherDisplay:10.37,2013-01-05 10:00:00,
2013-01-05 04:10:00,25.9,24.4,30.37,SE,142,1.0,2.0,94,0.00,OVC,,0.00,0.0,WeatherDisplay:10.37,2013-01-05 10:10:00,
2013-01-05 04:20:00,26.7,25.2,30.37,SE,140,0.0,1.0,94,0.00,OVC,,0.00,0.0,WeatherDisplay:10.37,2013-01-05 10:20:00,
2013-01-05 04:30:00,26.8,25.1,30.36,ESE,122,0.0,1.0,93,0.00,OVC,,0.00,0.0,WeatherDisplay:10.37,2013-01-05 10:30:00,
2013-01-05 04:40:00,27.2,25.4,30.36,ESE,122,0.0,1.0,93,0.00,OVC,,0.00,0.0,WeatherDisplay:10.37,2013-01-05 10:40:00,
2013-01-05 04:50:00,27.4,25.4,30.35,ESE,121,0.0,1.0,92,0.00,OVC,,0.00,0.0,WeatherDisplay:10.37,2013-01-05 10:50:00,
2013-01-05 05:00:00,27.6,25.6,30.35,ESE,114,0.0,1.0,92,0.00,OVC,,0.00,0.0,WeatherDisplay:10.37,2013-01-05 11:00:00,
2013-01-05 05:10:00,27.8,25.8,30.35,ESE,111,0.0,1.0,92,0.00,OVC,,0.00,0.0,WeatherDisplay:10.37,2013-01-05 11:10:00,
2013-01-05 05:20:00,27.5,25.2,30.36,ESE,107,0.0,1.0,91,0.00,OVC,,0.00,0.0,WeatherDisplay:10.37,2013-01-05 11:20:00,
2013-01-05 05:30:00,27.1,25.1,30.37,ESE,122,0.0,2.0,92,0.00,OVC,,0.00,0.0,WeatherDisplay:10.37,2013-01-05 11:30:00,
2013-01-05 05:40:00,27.0,25.0,30.37,ESE,122,0.0,1.0,92,0.00,OVC,,0.00,0.0,WeatherDisplay:10.37,2013-01-05 11:40:00,
2013-01-05 05:50:00,27.4,25.4,30.36,ESE,122,0.0,1.0,92,0.00,OVC,,0.00,0.0,WeatherDisplay:10.37,2013-01-05 11:50:00,
2013-01-05 06:00:00,27.6,25.3,30.38,ESE,122,0.0,1.0,91,0.00,OVC,,0.00,0.0,WeatherDisplay:10.37,2013-01-05 12:00:00,
2013-01-05 06:10:00,27.3,25.3,30.38,SE,124,0.0,1.0,92,0.00,OVC,,0.00,0.0,WeatherDisplay:10.37,2013-01-05 12:10:00,
2013-01-05 06:20:00,27.5,25.7,30.38,SE,124,0.0,1.0,93,0.00,OVC,,0.00,0.0,WeatherDisplay:10.37,2013-01-05 12:20:00,
2013-01-05 06:30:00,28.1,26.3,30.38,SE,124,0.0,0.0,93,0.00,OVC,,0.00,0.0,WeatherDisplay:10.37,2013-01-05 12:30:00,
2013-01-05 06:40:00,28.6,26.3,30.36,ESE,116,1.0,1.0,91,0.00,OVC,,0.00,0.0,WeatherDisplay:10.37,2013-01-05 12:40:00,
2013-01-05 06:50:00,29.2,26.9,30.36,ENE,57,0.0,2.0,91,0.00,OVC,,0.00,0.0,WeatherDisplay:10.37,2013-01-05 12:50:00,
2013-01-05 07:00:00,29.4,27.1,30.38,ENE,70,0.0,1.0,91,0.00,OVC,,0.00,0.0,WeatherDisplay:10.37,2013-01-05 13:00:00,
2013-01-05 07:10:00,29.1,26.8,30.38,SSW,201,1.0,2.0,91,0.00,OVC,,0.00,0.0,WeatherDisplay:10.37,2013-01-05 13:10:00,
2013-01-05 07:20:00,28.5,26.5,30.38,SSW,204,0.0,2.0,92,0.00,OVC,,0.00,0.0,WeatherDisplay:10.37,2013-01-05 13:20:00,
2013-01-05 07:30:00,28.4,26.4,30.38,South,179,0.0,1.0,92,0.00,OVC,,0.00,0.0,WeatherDisplay:10.37,2013-01-05 13:30:00,
2013-01-05 07:40:00,29.2,26.9,30.38,SSE,149,0.0,0.0,91,0.00,OVC,,0.00,0.0,WeatherDisplay:10.37,2013-01-05 13:40:00,
2013-01-05 07:50:00,30.1,27.2,30.39,SSE,151,1.0,2.0,89,0.00,OVC,,0.00,0.0,WeatherDisplay:10.37,2013-01-05 13:50:00,
2013-01-05 08:00:00,31.1,27.7,30.39,SE,142,1.0,2.0,87,0.00,OVC,,0.00,0.0,WeatherDisplay:10.37,2013-01-05 14:00:00,
2013-01-05 08:10:00,31.2,27.8,30.38,SE,131,1.0,2.0,87,0.00,OVC,,0.00,0.0,WeatherDisplay:10.37,2013-01-05 14:10:00,
2013-01-05 08:20:00,31.2,27.8,30.39,SE,131,1.0,3.0,87,0.00,OVC,,0.00,0.0,WeatherDisplay:10.37,2013-01-05 14:20:00,
2013-01-05 08:30:00,31.9,28.5,30.39,SE,133,1.0,2.0,87,0.00,OVC,,0.00,0.0,WeatherDisplay:10.37,2013-01-05 14:30:00,
2013-01-05 08:40:00,32.4,28.7,30.38,SE,135,1.0,4.0,86,0.00,OVC,,0.00,0.0,WeatherDisplay:10.37,2013-01-05 14:40:00,
2013-01-05 08:50:00,33.0,29.0,30.38,SSE,153,1.0,3.0,85,0.00,OVC,,0.00,0.0,WeatherDisplay:10.37,2013-01-05 14:50:00,
2013-01-05 09:00:00,33.4,29.4,30.38,SW,216,2.0,4.0,85,0.00,OVC,,0.00,0.0,WeatherDisplay:10.37,2013-01-05 15:00:00,
2013-01-05 09:10:00,33.6,30.4,30.39,SSW,200,1.0,4.0,88,0.00,OVC,,0.00,0.0,WeatherDisplay:10.37,2013-01-05 15:10:00,
2013-01-05 09:20:00,33.9,30.4,30.38,SSW,211,1.0,3.0,87,0.00,OVC,,0.00,0.0,WeatherDisplay:10.37,2013-01-05 15:20:00,
2013-01-05 09:30:00,34.7,31.2,30.39,SSW,209,0.0,3.0,87,0.00,OVC,,0.00,0.0,WeatherDisplay:10.37,2013-01-05 15:30:00,
2013-01-05 09:40:00,35.7,31.3,30.38,SSW,194,1.0,3.0,84,0.00,OVC,,0.00,0.0,WeatherDisplay:10.37,2013-01-05 15:40:00,
2013-01-05 09:50:00,36.5,31.8,30.38,South,189,2.0,4.0,83,0.00,OVC,,0.00,0.0,WeatherDisplay:10.37,2013-01-05 15:50:00,
2013-01-05 10:00:00,37.6,32.6,30.38,South,186,3.0,5.0,82,0.00,OVC,,0.00,0.0,WeatherDisplay:10.37,2013-01-05 16:00:00,
2013-01-05 10:10:00,38.1,32.5,30.37,SSW,194,3.0,4.0,80,0.00,OVC,,0.00,0.0,WeatherDisplay:10.37,2013-01-05 16:10:00,
2013-01-05 10:20:00,38.8,32.5,30.37,South,182,3.0,5.0,78,0.00,OVC,,0.00,0.0,WeatherDisplay:10.37,2013-01-05 16:20:00,
2013-01-05 10:30:00,39.2,32.9,30.37,SSW,199,3.0,6.0,78,0.00,OVC,,0.00,0.0,WeatherDisplay:10.37,2013-01-05 16:30:00,
2013-01-05 10:40:00,39.6,32.7,30.38,SSW,202,3.0,6.0,76,0.00,OVC,,0.00,0.0,WeatherDisplay:10.37,2013-01-05 16:40:00,
2013-01-05 10:50:00,40.6,33.0,30.36,South,174,2.0,5.0,74,0.00,OVC,,0.00,0.0,WeatherDisplay:10.37,2013-01-05 16:50:00,
2013-01-05 11:00:00,41.2,32.9,30.35,South,189,3.0,7.0,72,0.00,OVC,,0.00,0.0,WeatherDisplay:10.37,2013-01-05 17:00:00,
2013-01-05 11:10:00,41.6,33.6,30.35,SSW,195,2.0,6.0,73,0.00,OVC,,0.00,0.0,WeatherDisplay:10.37,2013-01-05 17:10:00,
2013-01-05 11:20:00,41.9,33.5,30.35,SW,217,5.0,7.0,72,0.00,OVC,,0.00,0.0,WeatherDisplay:10.37,2013-01-05 17:20:00,
2013-01-05 11:30:00,41.8,33.4,30.34,SW,216,3.0,6.0,72,0.00,OVC,,0.00,0.0,WeatherDisplay:10.37,2013-01-05 17:30:00,
2013-01-05 11:40:00,41.8,32.4,30.33,SW,222,5.0,8.0,69,0.00,OVC,,0.00,0.0,WeatherDisplay:10.37,2013-01-05 17:40:00,
2013-01-05 11:50:00,42.1,33.0,30.32,SW,215,3.0,6.0,70,0.00,OVC,,0.00,0.0,WeatherDisplay:10.37,2013-01-05 17:50:00,
2013-01-05 12:00:00,42.0,32.6,30.32,SW,224,5.0,7.0,69,0.00,OVC,,0.00,0.0,WeatherDisplay:10.37,2013-01-05 18:00:00,
2013-01-05 12:10:00,42.2,32.4,30.32,SW,228,5.0,7.0,68,0.00,OVC,,0.00,0.0,WeatherDisplay:10.37,2013-01-05 18:10:00,
2013-01-05 12:20:00,42.4,32.6,30.31,SW,224,3.0,6.0,68,0.00,OVC,,0.00,0.0,WeatherDisplay:10.37,2013-01-05 18:20:00,
2013-01-05 12:30:00,42.4,33.3,30.30,SW,225,3.0,5.0,70,0.00,OVC,,0.00,0.0,WeatherDisplay:10.37,2013-01-05 18:30:00,
2013-01-05 12:40:00,42.4,33.3,30.28,SSW,193,2.0,5.0,70,0.00,OVC,,0.00,0.0,WeatherDisplay:10.37,2013-01-05 18:40:00,
2013-01-05 12:50:00,42.4,33.7,30.28,SSW,198,3.0,5.0,71,0.00,OVC,,0.00,0.0,WeatherDisplay:10.37,2013-01-05 18:50:00,
2013-01-05 13:00:00,42.6,34.2,30.28,SSW,195,2.0,4.0,72,0.00,OVC,,0.00,0.0,WeatherDisplay:10.37,2013-01-05 19:00:00,
2013-01-05 13:10:00,42.7,33.9,30.27,South,184,2.0,6.0,71,0.00,OVC,,0.00,0.0,WeatherDisplay:10.37,2013-01-05 19:10:00,
2013-01-05 13:20:00,42.8,33.0,30.27,South,183,3.0,6.0,68,0.00,OVC,,0.00,0.0,WeatherDisplay:10.37,2013-01-05 19:20:00,
2013-01-05 13:30:00,42.9,33.1,30.26,South,185,2.0,6.0,68,0.00,OVC,,0.00,0.0,WeatherDisplay:10.37,2013-01-05 19:30:00,
2013-01-05 13:40:00,43.1,33.3,30.25,SSW,206,2.0,5.0,68,0.00,OVC,,0.00,0.0,WeatherDisplay:10.37,2013-01-05 19:40:00,
2013-01-05 13:50:00,43.3,33.5,30.25,South,184,2.0,5.0,68,0.00,OVC,,0.00,0.0,WeatherDisplay:10.37,2013-01-05 19:50:00,
2013-01-05 14:00:00,43.3,32.7,30.25,South,182,2.0,6.0,66,0.00,OVC,,0.00,0.0,WeatherDisplay:10.37,2013-01-05 20:00:00,
2013-01-05 14:10:00,43.3,33.1,30.25,SSW,193,2.0,6.0,67,0.00,OVC,,0.00,0.0,WeatherDisplay:10.37,2013-01-05 20:10:00,
2013-01-05 14:20:00,43.2,33.0,30.25,SSW,198,3.0,5.0,67,0.00,OVC,,0.00,0.0,WeatherDisplay:10.37,2013-01-05 20:20:00,
2013-01-05 14:30:00,42.9,31.9,30.25,SSW,202,5.0,6.0,65,0.00,OVC,,0.00,0.0,WeatherDisplay:10.37,2013-01-05 20:30:00,
2013-01-05 14:40:00,42.7,32.1,30.25,SSW,204,2.0,6.0,66,0.00,OVC,,0.00,0.0,WeatherDisplay:10.37,2013-01-05 20:40:00,
2013-01-05 14:50:00,42.7,32.5,30.25,SW,214,3.0,6.0,67,0.00,OVC,,0.00,0.0,WeatherDisplay:10.37,2013-01-05 20:50:00,
2013-01-05 15:00:00,42.7,32.5,30.24,SSW,209,6.0,8.0,67,0.00,OVC,,0.00,0.0,WeatherDisplay:10.37,2013-01-05 21:00:00,
2013-01-05 15:10:00,42.7,32.2,30.24,SW,218,3.0,6.0,66,0.00,OVC,,0.00,0.0,WeatherDisplay:10.37,2013-01-05 21:10:00,
2013-01-05 15:20:00,42.9,32.7,30.25,SW,222,2.0,6.0,67,0.00,OVC,,0.00,0.0,WeatherDisplay:10.37,2013-01-05 21:20:00,
2013-01-05 15:30:00,42.9,32.3,30.25,SW,224,3.0,6.0,66,0.00,OVC,,0.00,0.0,WeatherDisplay:10.37,2013-01-05 21:30:00,
2013-01-05 15:40:00,42.8,32.2,30.25,SW,228,5.0,7.0,66,0.00,OVC,,0.00,0.0,WeatherDisplay:10.37,2013-01-05 21:40:00,
2013-01-05 15:50:00,42.8,33.0,30.24,SSW,207,2.0,5.0,68,0.00,OVC,,0.00,0.0,WeatherDisplay:10.37,2013-01-05 21:50:00,
2013-01-05 16:00:00,42.8,33.0,30.25,SSW,211,2.0,5.0,68,0.00,OVC,,0.00,0.0,WeatherDisplay:10.37,2013-01-05 22:00:00,
2013-01-05 16:10:00,42.7,32.9,30.24,SSW,205,3.0,4.0,68,0.00,OVC,,0.00,0.0,WeatherDisplay:10.37,2013-01-05 22:10:00,
2013-01-05 16:20:00,42.5,33.0,30.24,SSW,196,2.0,6.0,69,0.00,OVC,,0.00,0.0,WeatherDisplay:10.37,2013-01-05 22:20:00,
2013-01-05 16:30:00,42.3,32.8,30.24,SSW,196,2.0,4.0,69,0.00,OVC,,0.00,0.0,WeatherDisplay:10.37,2013-01-05 22:30:00,
2013-01-05 16:40:00,42.1,32.3,30.24,South,180,1.0,3.0,68,0.00,OVC,,0.00,0.0,WeatherDisplay:10.37,2013-01-05 22:40:00,
2013-01-05 16:50:00,41.9,32.8,30.24,SSW,194,1.0,3.0,70,0.00,OVC,,0.00,0.0,WeatherDisplay:10.37,2013-01-05 22:50:00,
2013-01-05 17:00:00,41.6,33.2,30.25,SSW,201,1.0,2.0,72,0.00,OVC,,0.00,0.0,WeatherDisplay:10.37,2013-01-05 23:00:00,
2013-01-05 17:10:00,41.1,33.1,30.25,SSW,199,1.0,2.0,73,0.00,OVC,,0.00,0.0,WeatherDisplay:10.37,2013-01-05 23:10:00,
2013-01-05 17:20:00,41.0,33.0,30.25,SSW,194,1.0,2.0,73,0.00,OVC,,0.00,0.0,WeatherDisplay:10.37,2013-01-05 23:20:00,
2013-01-05 17:30:00,40.8,33.2,30.25,SSW,195,1.0,2.0,74,0.00,OVC,,0.00,0.0,WeatherDisplay:10.37,2013-01-05 23:30:00,
2013-01-05 17:40:00,40.7,33.1,30.25,SSW,201,1.0,2.0,74,0.00,OVC,,0.00,0.0,WeatherDisplay:10.37,2013-01-05 23:40:00,
2013-01-05 17:50:00,40.7,33.4,30.25,SSW,197,1.0,2.0,75,0.00,OVC,,0.00,0.0,WeatherDisplay:10.37,2013-01-05 23:50:00,
2013-01-05 18:00:00,40.5,33.5,30.25,SSW,196,1.0,2.0,76,0.00,OVC,,0.00,0.0,WeatherDisplay:10.37,2013-01-06 00:00:00,
2013-01-05 18:10:00,40.4,33.1,30.25,SSW,202,1.0,1.0,75,0.00,OVC,,0.00,0.0,WeatherDisplay:10.37,2013-01-06 00:10:00,
2013-01-05 18:20:00,40.6,33.0,30.26,SSW,206,0.0,1.0,74,0.00,OVC,,0.00,0.0,WeatherDisplay:10.37,2013-01-06 00:20:00,
2013-01-05 18:30:00,40.4,32.8,30.26,SSW,208,0.0,1.0,74,0.00,OVC,,0.00,0.0,WeatherDisplay:10.37,2013-01-06 00:30:00,
2013-01-05 18:40:00,40.5,32.8,30.26,SSW,208,0.0,1.0,74,0.00,OVC,,0.00,0.0,WeatherDisplay:10.37,2013-01-06 00:40:00,
2013-01-05 18:50:00,40.3,32.7,30.26,SSW,208,0.0,1.0,74,0.00,OVC,,0.00,0.0,WeatherDisplay:10.37,2013-01-06 00:50:00,
2013-01-05 19:00:00,40.1,32.5,30.26,SSW,208,0.0,1.0,74,0.00,OVC,,0.00,0.0,WeatherDisplay:10.37,2013-01-06 01:00:00,
2013-01-05 19:10:00,39.8,32.5,30.25,SSE,159,0.0,1.0,75,0.00,OVC,,0.00,0.0,WeatherDisplay:10.37,2013-01-06 01:10:00,
2013-01-05 19:20:00,39.6,32.3,30.25,South,173,0.0,1.0,75,0.00,OVC,,0.00,0.0,WeatherDisplay:10.37,2013-01-06 01:20:00,
2013-01-05 19:30:00,38.9,31.9,30.25,SSE,147,0.0,2.0,76,0.00,OVC,,0.00,0.0,WeatherDisplay:10.37,2013-01-06 01:30:00,
2013-01-05 19:40:00,38.6,31.7,30.25,SSW,211,1.0,1.0,76,0.00,OVC,,0.00,0.0,WeatherDisplay:10.37,2013-01-06 01:40:00,
2013-01-05 19:50:00,37.9,31.3,30.25,SSW,200,0.0,1.0,77,0.00,OVC,,0.00,0.0,WeatherDisplay:10.37,2013-01-06 01:50:00,
2013-01-05 20:00:00,37.0,31.1,30.25,SSE,165,0.0,2.0,79,0.00,OVC,,0.00,0.0,WeatherDisplay:10.37,2013-01-06 02:00:00,
2013-01-05 20:10:00,37.5,31.3,30.25,SSW,197,0.0,1.0,78,0.00,OVC,,0.00,0.0,WeatherDisplay:10.37,2013-01-06 02:10:00,
2013-01-05 20:20:00,37.2,31.3,30.25,SSW,192,0.0,1.0,79,0.00,OVC,,0.00,0.0,WeatherDisplay:10.37,2013-01-06 02:20:00,
2013-01-05 20:30:00,36.9,31.0,30.24,SSE,159,1.0,2.0,79,0.00,OVC,,0.00,0.0,WeatherDisplay:10.37,2013-01-06 02:30:00,
2013-01-05 20:40:00,36.8,30.9,30.24,SE,141,1.0,3.0,79,0.00,OVC,,0.00,0.0,WeatherDisplay:10.37,2013-01-06 02:40:00,
2013-01-05 20:50:00,37.1,30.8,30.24,SSE,163,1.0,3.0,78,0.00,OVC,,0.00,0.0,WeatherDisplay:10.37,2013-01-06 02:50:00,
2013-01-05 21:00:00,36.8,30.6,30.24,SSW,200,1.0,2.0,78,0.00,OVC,,0.00,0.0,WeatherDisplay:10.37,2013-01-06 03:00:00,
2013-01-05 21:10:00,36.2,30.4,30.25,SSW,203,0.0,1.0,79,0.00,OVC,,0.00,0.0,WeatherDisplay:10.37,2013-01-06 03:10:00,
2013-01-05 21:20:00,35.7,30.1,30.25,SSW,203,0.0,0.0,80,0.00,OVC,,0.00,0.0,WeatherDisplay:10.37,2013-01-06 03:20:00,
2013-01-05 21:30:00,35.5,30.2,30.25,SSW,197,0.0,0.0,81,0.00,OVC,,0.00,0.0,WeatherDisplay:10.37,2013-01-06 03:30:00,
2013-01-05 21:40:00,35.3,30.1,30.24,South,170,1.0,1.0,81,0.00,OVC,,0.00,0.0,WeatherDisplay:10.37,2013-01-06 03:40:00,
2013-01-05 21:50:00,35.0,30.1,30.24,SE,145,1.0,1.0,82,0.00,OVC,,0.00,0.0,WeatherDisplay:10.37,2013-01-06 03:50:00,
2013-01-05 22:00:00,35.5,30.5,30.24,SSW,202,1.0,2.0,82,0.00,OVC,,0.00,0.0,WeatherDisplay:10.37,2013-01-06 04:00:00,
2013-01-05 22:10:00,35.6,30.4,30.24,SSW,203,0.0,2.0,81,0.00,OVC,,0.00,0.0,WeatherDisplay:10.37,2013-01-06 04:10:00,
2013-01-05 22:20:00,35.5,30.6,30.24,SSW,192,1.0,2.0,82,0.00,OVC,,0.00,0.0,WeatherDisplay:10.37,2013-01-06 04:20:00,
2013-01-05 22:30:00,35.2,30.3,30.23,South,172,1.0,2.0,82,0.00,OVC,,0.00,0.0,WeatherDisplay:10.37,2013-01-06 04:30:00,
2013-01-05 22:40:00,35.3,30.3,30.23,SSE,147,1.0,3.0,82,0.00,OVC,,0.00,0.0,WeatherDisplay:10.37,2013-01-06 04:40:00,
2013-01-05 22:50:00,35.1,30.5,30.23,SSE,148,1.0,2.0,83,0.00,OVC,,0.00,0.0,WeatherDisplay:10.37,2013-01-06 04:50:00,
2013-01-05 23:00:00,34.9,30.2,30.23,South,169,0.0,2.0,83,0.00,OVC,,0.00,0.0,WeatherDisplay:10.37,2013-01-06 05:00:00,
2013-01-05 23:10:00,34.7,30.3,30.24,SSW,195,1.0,2.0,84,0.00,OVC,,0.00,0.0,WeatherDisplay:10.37,2013-01-06 05:10:00,
2013-01-05 23:20:00,34.7,30.4,30.24,SSW,195,1.0,2.0,84,0.00,OVC,,0.00,0.0,WeatherDisplay:10.37,2013-01-06 05:20:00,
2013-01-05 23:30:00,34.5,30.5,30.24,SSW,200,1.0,2.0,85,0.00,OVC,,0.00,0.0,WeatherDisplay:10.37,2013-01-06 05:30:00,
2013-01-05 23:40:00,34.2,30.2,30.24,SSW,203,1.0,2.0,85,0.00,OVC,,0.00,0.0,WeatherDisplay:10.37,2013-01-06 05:40:00,
2013-01-05 23:50:00,33.9,29.9,30.23,South,178,1.0,1.0,85,0.00,OVC,,0.00,0.0,WeatherDisplay:10.37,2013-01-06 05:50:00,